Time;durP1;ratioP1;P1;durP2;ratioP2;P2;SDS_P1;SDS_P2;PMS_P1;PMS_P2;Temp;Humidity;BMP_temperature;BMP_pressure;BME280_temperature;BME280_humidity;BME280_pressure;Samples;Min_cycle;Max_cycle;Signal;HPM_P1;HPM_P2
2023/05/24 00:00:32;;;;;;;24.15;10.57;;;;;;;;;;5021843;28;20466;-60
2023/05/24 00:02:59;;;;;;;20.30;6.40;;;;;;;;;;5022996;28;20443;-60
2023/05/24 00:05:29;;;;;;;13.85;4.75;;;;;;;;;;5022315;28;20547;-61
2023/05/24 00:07:57;;;;;;;16.05;4.72;;;;;;;;;;5020270;28;20439;-58
2023/05/24 00:10:25;;;;;;;12.25;3.95;;;;;;;;;;5021855;28;20785;-59
2023/05/24 00:12:52;;;;;;;19.92;3.80;;;;;;;;;;5021235;28;20420;-61
2023/05/24 00:15:19;;;;;;;14.10;3.53;;;;;;;;;;5022330;28;20415;-60
2023/05/24 00:17:47;;;;;;;13.88;3.67;;;;;;;;;;5023033;28;20755;-61
2023/05/24 00:20:14;;;;;;;15.18;3.70;;;;;;;;;;5017175;28;20409;-61
2023/05/24 00:22:42;;;;;;;13.55;3.60;;;;;;;;;;5021491;28;20416;-60
2023/05/24 00:25:09;;;;;;;16.17;3.70;;;;;;;;;;5022627;28;20418;-61
2023/05/24 00:27:36;;;;;;;12.98;3.08;;;;;;;;;;5020972;28;20429;-61
2023/05/24 00:30:03;;;;;;;11.23;3.20;;;;;;;;;;5018879;28;20438;-60
2023/05/24 00:32:30;;;;;;;12.63;3.00;;;;;;;;;;5022490;28;20415;-60
2023/05/24 00:34:59;;;;;;;15.85;3.50;;;;;;;;;;5022392;28;20465;-61
2023/05/24 00:37:26;;;;;;;14.68;3.17;;;;;;;;;;5019472;28;20409;-60
2023/05/24 00:39:53;;;;;;;11.87;3.53;;;;;;;;;;5018514;28;20502;-61
2023/05/24 00:42:20;;;;;;;17.15;3.53;;;;;;;;;;5021825;28;20909;-59
2023/05/24 00:44:47;;;;;;;12.13;3.25;;;;;;;;;;5021915;28;20468;-61
2023/05/24 00:47:14;;;;;;;13.45;3.78;;;;;;;;;;5022010;28;20456;-61
2023/05/24 00:49:41;;;;;;;13.63;4.20;;;;;;;;;;5016921;28;20420;-60
2023/05/24 00:52:09;;;;;;;15.90;3.95;;;;;;;;;;5020857;28;20439;-61
2023/05/24 00:54:39;;;;;;;16.23;4.45;;;;;;;;;;5022331;28;20529;-60
2023/05/24 00:57:06;;;;;;;15.30;4.25;;;;;;;;;;5021680;28;20426;-60
2023/05/24 00:59:33;;;;;;;14.00;4.22;;;;;;;;;;5020079;28;20832;-60
2023/05/24 01:02:00;;;;;;;13.57;3.80;;;;;;;;;;5019975;28;20416;-60
2023/05/24 01:04:27;;;;;;;14.90;3.58;;;;;;;;;;5020352;28;20413;-60
2023/05/24 01:07:04;;;;;;;12.68;3.30;;;;;;;;;;5016395;28;20456;-60
2023/05/24 01:09:34;;;;;;;12.32;3.67;;;;;;;;;;5019127;28;20419;-60
2023/05/24 01:12:08;;;;;;;15.50;3.90;;;;;;;;;;5022089;28;20425;-60
2023/05/24 01:14:39;;;;;;;11.40;3.45;;;;;;;;;;5021780;28;20418;-60
2023/05/24 01:17:10;;;;;;;8.97;3.57;;;;;;;;;;5023144;28;20427;-61
2023/05/24 01:19:44;;;;;;;15.97;3.90;;;;;;;;;;5018760;28;20511;-61
2023/05/24 01:22:17;;;;;;;12.70;3.95;;;;;;;;;;5022033;28;20903;-61
2023/05/24 01:24:54;;;;;;;16.02;3.80;;;;;;;;;;5021847;28;20823;-60
2023/05/24 01:27:23;;;;;;;13.70;3.65;;;;;;;;;;5019041;28;20430;-60
2023/05/24 01:29:52;;;;;;;13.38;3.63;;;;;;;;;;5020536;28;20432;-61
2023/05/24 01:32:20;;;;;;;13.23;3.63;;;;;;;;;;5016602;28;20509;-60
2023/05/24 01:34:47;;;;;;;14.80;4.13;;;;;;;;;;5021606;28;20419;-59
2023/05/24 01:37:14;;;;;;;9.90;3.40;;;;;;;;;;5022682;28;20410;-60
2023/05/24 01:39:41;;;;;;;13.40;3.83;;;;;;;;;;5019093;28;20421;-60
2023/05/24 01:42:12;;;;;;;12.63;3.93;;;;;;;;;;5023136;28;20500;-59
2023/05/24 01:44:44;;;;;;;14.63;4.40;;;;;;;;;;5024611;28;20412;-61
2023/05/24 01:47:18;;;;;;;13.05;4.88;;;;;;;;;;5024542;28;20521;-60
2023/05/24 01:49:49;;;;;;;16.58;4.78;;;;;;;;;;5025545;28;20838;-60
2023/05/24 01:52:16;;;;;;;15.38;5.10;;;;;;;;;;5020946;28;20413;-60
2023/05/24 01:54:45;;;;;;;14.07;4.93;;;;;;;;;;5023866;28;20416;-60
2023/05/24 01:57:12;;;;;;;13.05;4.18;;;;;;;;;;5025049;28;20429;-61
2023/05/24 01:59:42;;;;;;;13.80;4.63;;;;;;;;;;5024182;28;20425;-59
2023/05/24 02:02:09;;;;;;;11.27;3.97;;;;;;;;;;5023380;28;20412;-61
2023/05/24 02:04:36;;;;;;;13.93;4.50;;;;;;;;;;5026979;28;20412;-60
2023/05/24 02:07:03;;;;;;;18.05;4.70;;;;;;;;;;5022889;28;21071;-60
2023/05/24 02:09:30;;;;;;;14.25;4.30;;;;;;;;;;5022858;28;20450;-60
2023/05/24 02:11:57;;;;;;;10.05;4.35;;;;;;;;;;5022655;28;20490;-61
2023/05/24 02:14:25;;;;;;;12.63;4.05;;;;;;;;;;5023408;28;20447;-60
2023/05/24 02:16:57;;;;;;;11.63;4.90;;;;;;;;;;5023673;28;20512;-60
2023/05/24 02:19:24;;;;;;;11.32;4.13;;;;;;;;;;5019456;28;20412;-60
2023/05/24 02:21:51;;;;;;;10.45;4.18;;;;;;;;;;5026763;28;20418;-60
2023/05/24 02:24:18;;;;;;;17.25;4.07;;;;;;;;;;5025802;28;20418;-60
2023/05/24 02:26:45;;;;;;;13.83;4.30;;;;;;;;;;5023043;28;20702;-60
2023/05/24 02:29:12;;;;;;;14.77;4.60;;;;;;;;;;5025116;28;20426;-58
2023/05/24 02:31:39;;;;;;;15.25;4.70;;;;;;;;;;5019415;28;20408;-60
2023/05/24 02:34:08;;;;;;;17.17;4.72;;;;;;;;;;5023161;28;20436;-60
2023/05/24 02:36:36;;;;;;;12.95;4.38;;;;;;;;;;5025861;28;20420;-59
2023/05/24 02:39:03;;;;;;;13.00;4.53;;;;;;;;;;5021179;28;20458;-60
2023/05/24 02:41:30;;;;;;;13.77;4.78;;;;;;;;;;5024558;28;21112;-60
2023/05/24 02:43:57;;;;;;;17.67;5.05;;;;;;;;;;5024541;28;20488;-60
2023/05/24 02:46:24;;;;;;;13.73;4.88;;;;;;;;;;5026134;28;20411;-61
2023/05/24 02:48:51;;;;;;;16.65;5.07;;;;;;;;;;5021425;28;20435;-59
2023/05/24 02:51:19;;;;;;;20.05;5.25;;;;;;;;;;5022443;28;20422;-60
2023/05/24 02:53:46;;;;;;;14.70;4.78;;;;;;;;;;5021271;28;20420;-60
2023/05/24 02:56:16;;;;;;;17.80;5.53;;;;;;;;;;5025829;28;20415;-59
2023/05/24 02:58:44;;;;;;;19.13;6.13;;;;;;;;;;5024665;28;20419;-60
2023/05/24 03:01:12;;;;;;;17.47;5.17;;;;;;;;;;5023089;28;20520;-58
2023/05/24 03:03:39;;;;;;;19.47;5.90;;;;;;;;;;5026290;28;20505;-59
2023/05/24 03:06:06;;;;;;;14.88;4.95;;;;;;;;;;5018698;28;20419;-60
2023/05/24 03:08:36;;;;;;;12.65;4.80;;;;;;;;;;5021390;28;20484;-59
2023/05/24 03:11:03;;;;;;;17.13;4.90;;;;;;;;;;5020183;28;20481;-59
2023/05/24 03:13:30;;;;;;;13.70;5.70;;;;;;;;;;5024529;28;20752;-60
2023/05/24 03:15:57;;;;;;;14.80;5.70;;;;;;;;;;5024768;28;20467;-60
2023/05/24 03:18:24;;;;;;;18.40;5.70;;;;;;;;;;5023462;28;20415;-60
2023/05/24 03:20:51;;;;;;;14.57;5.40;;;;;;;;;;5023989;28;20422;-60
2023/05/24 03:23:18;;;;;;;16.30;5.70;;;;;;;;;;5018380;28;20471;-60
2023/05/24 03:25:46;;;;;;;16.83;5.68;;;;;;;;;;5025023;28;20423;-59
2023/05/24 03:28:14;;;;;;;18.52;5.45;;;;;;;;;;5024538;28;20918;-58
2023/05/24 03:30:41;;;;;;;17.52;5.45;;;;;;;;;;5022639;28;20889;-59
2023/05/24 03:33:08;;;;;;;18.52;5.50;;;;;;;;;;5024571;28;20481;-60
2023/05/24 03:35:35;;;;;;;15.85;5.50;;;;;;;;;;5023144;28;20799;-60
2023/05/24 03:38:02;;;;;;;16.67;5.65;;;;;;;;;;5020006;28;20463;-60
2023/05/24 03:40:32;;;;;;;16.27;5.45;;;;;;;;;;5020791;28;20424;-59
2023/05/24 03:43:00;;;;;;;13.77;5.20;;;;;;;;;;5022923;28;20424;-60
2023/05/24 03:45:27;;;;;;;16.48;5.55;;;;;;;;;;5023713;28;20495;-60
2023/05/24 03:47:54;;;;;;;19.15;5.93;;;;;;;;;;5022136;28;20844;-60
2023/05/24 03:50:21;;;;;;;19.33;5.60;;;;;;;;;;5021080;28;20424;-60
2023/05/24 03:52:48;;;;;;;18.63;5.57;;;;;;;;;;5023233;28;20854;-60
2023/05/24 03:55:16;;;;;;;15.25;5.70;;;;;;;;;;5022980;28;20454;-60
2023/05/24 03:57:43;;;;;;;17.77;5.80;;;;;;;;;;5021263;28;20813;-59
2023/05/24 04:00:12;;;;;;;12.20;5.10;;;;;;;;;;5022620;28;20486;-60
2023/05/24 04:02:39;;;;;;;16.83;5.57;;;;;;;;;;5021021;28;20527;-60
2023/05/24 04:05:09;;;;;;;20.70;5.80;;;;;;;;;;5023669;28;20427;-58
2023/05/24 04:07:36;;;;;;;13.82;5.55;;;;;;;;;;5020903;28;20416;-60
2023/05/24 04:10:03;;;;;;;16.73;5.30;;;;;;;;;;5023044;28;20449;-60
2023/05/24 04:12:31;;;;;;;16.15;5.07;;;;;;;;;;5023178;28;20506;-59
2023/05/24 04:14:58;;;;;;;15.80;5.28;;;;;;;;;;5019334;28;20962;-60
2023/05/24 04:17:28;;;;;;;15.30;5.20;;;;;;;;;;5022669;28;20415;-59
2023/05/24 04:19:55;;;;;;;18.30;5.53;;;;;;;;;;5022639;28;20481;-60
2023/05/24 04:22:22;;;;;;;14.73;5.00;;;;;;;;;;5021956;28;20890;-61
2023/05/24 04:24:49;;;;;;;16.23;5.80;;;;;;;;;;5020301;28;21048;-61
2023/05/24 04:27:17;;;;;;;14.98;5.57;;;;;;;;;;5022456;28;20415;-60
2023/05/24 04:29:48;;;;;;;14.60;5.13;;;;;;;;;;5022816;28;20423;-60
2023/05/24 04:32:16;;;;;;;12.68;5.50;;;;;;;;;;5018236;28;20467;-60
2023/05/24 04:34:45;;;;;;;19.67;5.72;;;;;;;;;;5020599;28;20524;-60
2023/05/24 04:37:16;;;;;;;18.25;6.07;;;;;;;;;;5017891;28;20420;-60
2023/05/24 04:39:43;;;;;;;14.48;5.90;;;;;;;;;;5020078;28;20884;-60
2023/05/24 04:42:11;;;;;;;15.88;5.75;;;;;;;;;;5020477;28;20731;-60
2023/05/24 04:44:39;;;;;;;14.23;5.30;;;;;;;;;;5021135;28;20503;-60
2023/05/24 04:47:06;;;;;;;17.48;5.90;;;;;;;;;;5022735;28;20422;-60
2023/05/24 04:49:33;;;;;;;17.63;5.95;;;;;;;;;;5021656;28;20433;-60
2023/05/24 04:52:02;;;;;;;21.20;5.85;;;;;;;;;;5021138;28;20431;-61
2023/05/24 04:54:29;;;;;;;17.52;6.18;;;;;;;;;;5022092;28;20468;-61
2023/05/24 04:56:56;;;;;;;19.52;5.78;;;;;;;;;;5023297;28;20422;-60
2023/05/24 04:59:23;;;;;;;15.48;5.57;;;;;;;;;;5016894;28;20504;-58
2023/05/24 05:01:50;;;;;;;17.65;6.32;;;;;;;;;;5020742;28;20506;-60
2023/05/24 05:04:17;;;;;;;20.83;6.30;;;;;;;;;;5022074;28;20876;-59
2023/05/24 05:06:45;;;;;;;23.02;6.35;;;;;;;;;;5022970;28;20426;-60
2023/05/24 05:09:14;;;;;;;22.17;6.68;;;;;;;;;;5015936;28;20448;-60
2023/05/24 05:11:42;;;;;;;20.65;6.72;;;;;;;;;;5021119;28;20415;-60
2023/05/24 05:14:09;;;;;;;21.73;7.22;;;;;;;;;;5018837;28;20778;-59
2023/05/24 05:16:36;;;;;;;20.50;6.97;;;;;;;;;;5017656;28;20470;-58
2023/05/24 05:19:04;;;;;;;19.58;6.90;;;;;;;;;;5020719;28;20888;-59
2023/05/24 05:21:32;;;;;;;18.90;6.43;;;;;;;;;;5019447;28;20416;-59
2023/05/24 05:23:59;;;;;;;22.98;6.55;;;;;;;;;;5022630;28;20767;-58
2023/05/24 05:26:28;;;;;;;25.43;7.10;;;;;;;;;;5019857;28;20476;-59
2023/05/24 05:28:55;;;;;;;28.60;7.13;;;;;;;;;;5021345;28;20473;-59
2023/05/24 05:31:22;;;;;;;21.63;6.37;;;;;;;;;;5021920;28;20411;-59
2023/05/24 05:33:50;;;;;;;21.83;7.05;;;;;;;;;;5016158;28;20953;-59
2023/05/24 05:36:17;;;;;;;26.83;6.93;;;;;;;;;;5019795;28;20455;-59
2023/05/24 05:38:44;;;;;;;23.02;6.70;;;;;;;;;;5018549;28;20411;-57
2023/05/24 05:41:11;;;;;;;25.70;6.47;;;;;;;;;;5020692;28;20427;-60
2023/05/24 05:43:40;;;;;;;16.77;6.28;;;;;;;;;;5022182;28;20465;-58
2023/05/24 05:46:07;;;;;;;21.13;6.93;;;;;;;;;;5020307;28;20417;-58
2023/05/24 05:48:34;;;;;;;24.10;7.43;;;;;;;;;;5019341;28;20436;-55
2023/05/24 05:51:01;;;;;;;21.10;7.00;;;;;;;;;;5015834;28;20478;-59
2023/05/24 05:53:28;;;;;;;19.02;7.10;;;;;;;;;;5020373;28;20416;-58
2023/05/24 05:55:55;;;;;;;29.30;7.95;;;;;;;;;;5020340;28;20497;-58
2023/05/24 05:58:22;;;;;;;26.92;7.78;;;;;;;;;;5020729;28;20942;-60
2023/05/24 06:00:50;;;;;;;19.45;6.80;;;16.70;99.90;;;;;;5021495;28;20422;-59
2023/05/24 06:03:17;;;;;;;18.88;6.65;;;9.10;99.90;;;;;;5015149;28;20422;-58
2023/05/24 06:05:44;;;;;;;22.95;7.03;;;9.20;99.90;;;;;;5021206;28;20826;-60
2023/05/24 06:08:10;;;;;;;18.58;6.43;;;9.10;99.90;;;;;;5016647;28;20778;-59
2023/05/24 06:10:37;;;;;;;21.05;7.07;;;9.20;99.90;;;;;;5019006;28;20416;-59
2023/05/24 06:13:04;;;;;;;21.85;6.18;;;9.40;99.90;;;;;;5019209;28;20420;-60
2023/05/24 06:15:32;;;;;;;24.75;6.43;;;9.50;99.90;;;;;;5022082;28;20481;-57
2023/05/24 06:18:00;;;;;;;26.20;6.87;;;9.60;99.90;;;;;;5019590;28;20428;-58
2023/05/24 06:20:27;;;;;;;23.40;7.32;;;9.60;99.90;;;;;;5019538;28;20424;-59
2023/05/24 06:22:54;;;;;;;22.05;6.18;;;9.70;99.90;;;;;;5020501;28;20490;-58
2023/05/24 06:25:23;;;;;;;26.30;6.43;;;9.90;99.90;;;;;;5021311;28;20418;-59
2023/05/24 06:27:49;;;;;;;27.02;5.88;;;10.00;99.90;;;;;;5023125;28;20423;-59
2023/05/24 06:30:16;;;;;;;26.50;6.40;;;10.00;99.90;;;;;;5022916;28;20534;-58
2023/05/24 06:32:43;;;;;;;24.50;6.53;;;10.00;99.90;;;;;;5019486;28;21136;-58
2023/05/24 06:35:11;;;;;;;23.63;5.95;;;10.00;99.90;;;;;;5023634;28;20412;-58
2023/05/24 06:37:38;;;;;;;25.67;6.03;;;10.10;99.90;;;;;;5023021;28;20419;-58
2023/05/24 06:40:08;;;;;;;24.95;6.93;;;10.30;99.90;;;;;;5021060;28;20427;-59
2023/05/24 06:42:35;;;;;;;27.10;6.73;;;10.20;99.90;;;;;;5025044;28;20878;-60
2023/05/24 06:45:01;;;;;;;25.38;6.10;;;10.40;99.90;;;;;;5022282;28;20492;-59
2023/05/24 06:47:28;;;;;;;24.00;5.90;;;10.40;99.70;;;;;;5024526;28;20423;-60
2023/05/24 06:49:55;;;;;;;26.23;5.57;;;10.60;99.90;;;;;;5022405;28;20897;-60
2023/05/24 06:52:23;;;;;;;22.65;5.88;;;10.60;27.50;;;;;;5023315;28;20460;-59
2023/05/24 06:54:50;;;;;;;20.73;4.75;;;10.70;67.20;;;;;;5024831;28;20414;-58
2023/05/24 06:57:17;;;;;;;22.42;5.50;;;10.70;21.00;;;;;;5023465;28;20425;-60
2023/05/24 06:59:44;;;;;;;21.75;5.78;;;10.80;29.50;;;;;;5022316;28;20828;-58
2023/05/24 07:02:10;;;;;;;21.33;5.53;;;10.80;69.30;;;;;;5018857;28;20548;-57
2023/05/24 07:04:39;;;;;;;18.60;4.80;;;11.00;1.00;;;;;;5024646;28;20420;-58
2023/05/24 07:07:06;;;;;;;17.42;5.05;;;11.10;1.00;;;;;;5024479;28;20823;-58
2023/05/24 07:09:34;;;;;;;16.30;4.50;;;11.30;19.90;;;;;;5017787;28;20433;-60
2023/05/24 07:12:01;;;;;;;15.80;4.43;;;11.10;1.00;;;;;;5021953;28;20909;-59
2023/05/24 07:14:27;;;;;;;19.20;4.50;;;11.20;1.00;;;;;;5023780;28;20817;-60
2023/05/24 07:16:56;;;;;;;17.90;4.85;;;11.30;1.00;;;;;;5024402;28;20443;-56
2023/05/24 07:19:26;;;;;;;19.65;4.90;;;11.40;1.00;;;;;;5017911;28;20508;-59
2023/05/24 07:21:53;;;;;;;22.83;5.03;;;11.50;1.00;;;;;;5022609;28;20417;-56
2023/05/24 07:24:20;;;;;;;17.93;4.40;;;11.40;1.00;;;;;;5024100;28;20411;-58
2023/05/24 07:26:49;;;;;;;19.00;5.05;;;11.40;1.00;;;;;;5024106;28;20426;-59
2023/05/24 07:29:15;;;;;;;18.27;4.90;;;11.50;1.00;;;;;;5024134;28;20430;-59
2023/05/24 07:31:42;;;;;;;17.50;4.38;;;11.50;1.00;;;;;;5022244;28;20425;-60
2023/05/24 07:34:08;;;;;;;23.63;4.82;;;11.40;1.00;;;;;;5021941;28;20417;-59
2023/05/24 07:36:35;;;;;;;18.92;4.78;;;11.40;1.00;;;;;;5023699;28;20445;-60
2023/05/24 07:39:04;;;;;;;19.73;5.00;;;11.60;1.00;;;;;;5022711;28;20579;-60
2023/05/24 07:41:32;;;;;;;17.88;4.68;;;11.70;1.00;;;;;;5023927;28;20426;-60
2023/05/24 07:44:00;;;;;;;16.33;4.40;;;11.80;1.00;;;;;;5024863;28;20416;-57
2023/05/24 07:46:26;;;;;;;15.83;4.53;;;11.70;99.90;;;;;;5021241;28;20416;-60
2023/05/24 07:48:53;;;;;;;14.30;4.25;;;12.10;1.00;;;;;;5026620;28;20422;-60
2023/05/24 07:51:20;;;;;;;16.15;4.45;;;12.00;99.90;;;;;;5025842;28;20428;-60
2023/05/24 07:53:47;;;;;;;15.25;4.10;;;12.00;99.90;;;;;;5023705;28;20410;-60
2023/05/24 07:56:13;;;;;;;18.83;4.87;;;11.80;77.80;;;;;;5022006;28;20910;-60
2023/05/24 07:58:41;;;;;;;14.55;4.38;;;11.90;48.20;;;;;;5020778;28;20424;-61
2023/05/24 08:01:09;;;;;;;13.03;3.63;;;11.90;99.90;;;;;;5020549;28;20952;-60
2023/05/24 08:03:36;;;;;;;14.23;3.90;;;11.80;1.00;;;;;;5021348;28;20417;-59
2023/05/24 08:06:03;;;;;;;12.75;3.85;;;11.80;99.90;;;;;;5023019;28;20454;-60
2023/05/24 08:08:30;;;;;;;23.38;4.40;;;11.90;99.90;;;;;;5020682;28;20973;-60
2023/05/24 08:10:56;;;;;;;17.20;3.95;;;11.40;1.00;;;;;;5020186;28;20434;-60
2023/05/24 08:13:23;;;;;;;17.93;4.30;;;11.30;1.00;;;;;;5021663;28;20421;-60
2023/05/24 08:15:50;;;;;;;17.83;4.13;;;11.40;99.90;;;;;;5021124;28;20412;-60
2023/05/24 08:18:18;;;;;;;14.07;4.07;;;11.60;99.90;;;;;;5023620;28;20485;-61
2023/05/24 08:20:45;;;;;;;16.70;4.22;;;11.50;1.00;;;;;;5021509;28;20459;-61
2023/05/24 08:23:12;;;;;;;14.90;3.80;;;11.50;99.90;;;;;;5020255;28;20428;-62
2023/05/24 08:25:39;;;;;;;12.57;4.10;;;11.80;99.90;;;;;;5020049;28;20955;-61
2023/05/24 08:28:07;;;;;;;15.00;3.85;;;11.90;99.90;;;;;;5019544;28;20446;-61
2023/05/24 08:30:34;;;;;;;15.70;4.68;;;11.70;99.90;;;;;;5016995;28;20460;-61
2023/05/24 08:33:00;;;;;;;15.90;4.97;;;11.70;99.90;;;;;;5023282;28;20429;-62
2023/05/24 08:35:28;;;;;;;13.45;4.68;;;11.60;99.90;;;;;;5019978;28;20416;-62
2023/05/24 08:37:55;;;;;;;18.02;4.65;;;11.80;99.90;;;;;;5019329;28;20475;-61
2023/05/24 08:40:22;;;;;;;15.47;4.63;;;11.90;99.90;;;;;;5019399;28;20460;-62
2023/05/24 08:42:50;;;;;;;14.52;4.43;;;12.10;99.90;;;;;;5022421;28;20506;-62
2023/05/24 08:45:18;;;;;;;19.55;4.93;;;12.00;95.50;;;;;;5022238;28;20445;-62
2023/05/24 08:47:46;;;;;;;16.17;4.63;;;11.70;99.90;;;;;;5016586;28;20491;-61
2023/05/24 08:50:16;;;;;;;16.63;4.68;;;12.00;99.90;;;;;;5021954;28;20484;-68
2023/05/24 08:52:46;;;;;;;16.02;4.70;;;12.10;91.20;;;;;;5012276;28;20968;-62
2023/05/24 08:55:12;;;;;;;14.85;4.50;;;12.40;1.00;;;;;;5016225;28;20455;-64
2023/05/24 08:57:40;;;;;;;16.33;5.20;;;12.60;1.00;;;;;;5022928;28;20465;-65
2023/05/24 09:00:10;;;;;;;19.10;5.00;;;12.40;1.00;;;;;;5018929;28;20422;-61
2023/05/24 09:02:38;;;;;;;19.20;5.03;;;12.40;1.00;;;;;;5021531;28;20415;-61
2023/05/24 09:05:09;;;;;;;17.73;5.15;;;12.50;1.00;;;;;;5020621;28;20838;-62
2023/05/24 09:07:37;;;;;;;16.70;5.83;;;12.50;1.00;;;;;;5019047;28;20955;-63
2023/05/24 09:10:07;;;;;;;13.05;4.80;;;12.60;1.00;;;;;;5009815;28;20433;-55
2023/05/24 09:12:36;;;;;;;18.00;5.85;;;12.40;1.00;;;;;;5025140;28;20477;-59
2023/05/24 09:15:03;;;;;;;18.92;6.50;;;12.30;1.00;;;;;;5018487;28;20418;-56
2023/05/24 09:17:31;;;;;;;17.63;5.18;;;12.00;29.90;;;;;;5020860;28;20418;-60
2023/05/24 09:19:59;;;;;;;16.73;5.40;;;12.30;41.40;;;;;;5015699;28;20422;-59
2023/05/24 09:22:27;;;;;;;17.60;5.37;;;12.60;1.00;;;;;;5021846;28;20765;-60
2023/05/24 09:24:58;;;;;;;18.15;5.43;;;12.80;1.00;;;;;;5018896;28;20427;-59
2023/05/24 09:27:26;;;;;;;15.65;4.88;;;12.90;1.00;;;;;;5019340;28;20427;-59
2023/05/24 09:29:53;;;;;;;15.32;4.65;;;13.10;1.00;;;;;;5015903;28;20436;-59
2023/05/24 09:32:23;;;;;;;16.33;4.67;;;13.20;1.00;;;;;;5020635;28;20958;-63
2023/05/24 09:34:52;;;;;;;14.15;4.43;;;13.20;1.00;;;;;;5021675;28;20506;-59
2023/05/24 09:37:21;;;;;;;16.70;5.18;;;13.60;1.00;;;;;;5021486;28;20456;-59
2023/05/24 09:39:49;;;;;;;12.57;4.55;;;13.90;99.90;;;;;;5019481;28;20422;-59
2023/05/24 09:42:17;;;;;;;12.48;4.00;;;13.50;99.90;;;;;;5021615;28;20431;-60
2023/05/24 09:44:46;;;;;;;14.23;4.45;;;13.00;99.90;;;;;;5021615;28;20422;-59
2023/05/24 09:47:13;;;;;;;18.38;4.70;;;12.60;99.90;;;;;;5020087;28;20788;-66
2023/05/24 09:49:39;;;;;;;14.32;4.57;;;12.50;99.90;;;;;;5019284;28;20429;-66
2023/05/24 09:52:06;;;;;;;16.55;5.28;;;12.60;1.00;;;;;;5015509;28;20420;-62
2023/05/24 09:54:33;;;;;;;16.63;4.80;;;12.70;1.00;;;;;;5019637;28;20463;-60
2023/05/24 09:57:03;;;;;;;16.13;4.83;;;13.00;1.00;;;;;;5021460;28;20834;-62
2023/05/24 09:59:32;;;;;;;13.90;4.53;;;13.10;99.90;;;;;;5019029;28;20489;-61
2023/05/24 10:02:09;;;;;;;11.77;4.88;;;13.10;99.90;;;;;;5022969;28;20468;-60
2023/05/24 10:04:36;;;;;;;12.68;4.50;;;13.20;99.90;;;;;;5024714;28;20421;-61
2023/05/24 10:07:04;;;;;;;15.20;5.20;;;13.00;99.90;;;;;;5021884;28;20465;-62
2023/05/24 10:09:33;;;;;;;14.37;4.90;;;13.40;99.90;;;;;;5022978;28;20423;-59
2023/05/24 10:12:03;;;;;;;14.68;5.03;;;13.50;99.90;;;;;;5022055;28;20451;-64
2023/05/24 10:14:33;;;;;;;14.85;4.80;;;13.90;99.90;;;;;;5025673;28;20423;-61
2023/05/24 10:17:00;;;;;;;14.47;4.73;;;;;;;;;;5023363;28;20416;-61
2023/05/24 10:19:29;;;;;;;16.85;5.13;;;;;;;;;;5023832;28;20466;-60
2023/05/24 10:21:57;;;;;;;16.73;4.82;;;;;;;;;;5024971;28;20429;-59
2023/05/24 10:24:26;;;;;;;14.35;4.85;;;;;;;;;;5024120;28;20489;-60
2023/05/24 10:26:54;;;;;;;14.07;5.13;;;;;;;;;;5022621;28;20412;-60
2023/05/24 10:29:28;;;;;;;16.50;4.93;;;;;;;;;;5028145;28;20449;-56
2023/05/24 10:31:55;;;;;;;13.17;4.80;;;;;;;;;;5022147;28;20492;-59
2023/05/24 10:34:23;;;;;;;13.03;4.47;;;;;;;;;;5023429;28;20415;-59
2023/05/24 10:36:51;;;;;;;13.90;4.03;;;;;;;;;;5024622;28;20418;-59
2023/05/24 10:39:21;;;;;;;15.77;4.80;;;;;;;;;;5020498;28;20431;-61
2023/05/24 10:41:48;;;;;;;14.68;4.55;;;;;;;;;;5022620;28;20497;-56
2023/05/24 10:44:19;;;;;;;12.55;3.80;;;;;;;;;;5023658;28;20419;-59
2023/05/24 10:47:08;;;;;;;15.70;4.43;;;;;;;;;;5022427;28;20415;-58
2023/05/24 10:49:35;;;;;;;11.85;3.95;;;;;;;;;;5024018;28;20411;-55
2023/05/24 10:52:07;;;;;;;14.40;4.00;;;;;;;;;;5023126;28;20421;-56
2023/05/24 10:54:34;;;;;;;14.88;4.45;;;;;;;;;;5021728;28;20824;-59
2023/05/24 10:57:03;;;;;;;16.02;3.78;;;;;;;;;;5021763;28;20414;-60
2023/05/24 10:59:33;;;;;;;13.98;4.18;;;;;;;;;;5023489;28;20419;-60
2023/05/24 11:02:05;;;;;;;14.10;4.38;;;;;;;;;;5020704;28;20431;-60
2023/05/24 11:04:32;;;;;;;12.30;3.70;;;;;;;;;;5023917;28;20415;-59
2023/05/24 11:07:02;;;;;;;13.52;4.05;;;;;;;;;;5022887;28;20797;-60
2023/05/24 11:09:30;;;;;;;15.13;4.22;;;;;;;;;;5017909;28;20435;-58
2023/05/24 11:11:58;;;;;;;16.13;4.68;;;;;;;;;;5025148;28;20829;-59
2023/05/24 11:14:26;;;;;;;15.32;4.47;;;;;;;;;;5024535;28;20469;-59
2023/05/24 11:16:53;;;;;;;14.10;4.73;;;;;;;;;;5021880;28;20445;-60
2023/05/24 11:19:20;;;;;;;13.55;3.90;;;;;;;;;;5022014;28;20454;-59
2023/05/24 11:21:48;;;;;;;13.52;3.88;;;;;;;;;;5019951;28;20454;-58
2023/05/24 11:24:16;;;;;;;13.25;3.95;;;;;;;;;;5020010;28;20460;-56
2023/05/24 11:26:45;;;;;;;13.27;4.28;;;;;;;;;;5027557;28;20481;-59
2023/05/24 11:29:16;;;;;;;12.63;4.15;;;;;;;;;;5023453;28;20428;-57
2023/05/24 11:31:47;;;;;;;13.75;4.20;;;;;;;;;;5024429;28;20465;-55
2023/05/24 11:34:16;;;;;;;11.33;4.13;;;;;;;;;;5023130;28;20521;-59
2023/05/24 11:36:43;;;;;;;13.40;4.30;;;;;;;;;;5021760;28;20822;-60
2023/05/24 11:39:10;;;;;;;17.30;5.47;;;;;;;;;;5019521;28;20423;-59
2023/05/24 11:41:38;;;;;;;16.98;5.40;;;;;;;;;;5022316;28;20423;-61
2023/05/24 11:44:06;;;;;;;13.70;4.60;;;;;;;;;;5022153;28;20425;-57
2023/05/24 11:46:34;;;;;;;14.15;4.93;;;;;;;;;;5020832;28;20440;-56
2023/05/24 11:49:02;;;;;;;14.70;5.65;;;;;;;;;;5014552;28;20455;-53
2023/05/24 11:51:30;;;;;;;14.48;5.07;;;;;;;;;;5022347;28;20442;-56
2023/05/24 11:53:57;;;;;;;15.55;5.38;;;;;;;;;;5020445;28;20422;-54
2023/05/24 11:56:25;;;;;;;15.32;4.88;;;;;;;;;;5022003;28;20494;-56
2023/05/24 11:58:55;;;;;;;12.95;5.10;;;;;;;;;;5020675;28;20432;-54
2023/05/24 12:01:27;;;;;;;13.40;4.97;;;;;;;;;;5022318;28;20876;-58
2023/05/24 12:03:54;;;;;;;18.17;5.13;;;;;;;;;;5026385;28;20529;-56
2023/05/24 12:06:22;;;;;;;18.23;4.78;;;;;;;;;;5021971;28;20463;-57
2023/05/24 12:08:49;;;;;;;15.00;5.10;;;;;;;;;;5020444;28;20423;-56
2023/05/24 12:11:16;;;;;;;15.60;4.68;;;;;;;;;;5020341;28;20432;-57
2023/05/24 12:13:44;;;;;;;13.03;4.47;;;;;;;;;;5022163;28;20509;-56
2023/05/24 12:16:13;;;;;;;13.55;4.30;;;;;;;;;;5019983;28;20428;-57
2023/05/24 12:18:42;;;;;;;13.50;3.90;;;;;;;;;;5023317;28;20434;-57
2023/05/24 12:21:11;;;;;;;16.75;4.60;;;;;;;;;;5019995;28;20458;-54
2023/05/24 12:23:38;;;;;;;20.25;4.70;;;;;;;;;;5021034;28;20424;-56
2023/05/24 12:26:05;;;;;;;15.90;4.45;;;;;;;;;;5022234;28;20419;-56
2023/05/24 12:28:35;;;;;;;17.33;4.50;;;;;;;;;;5021151;28;20467;-59
2023/05/24 12:31:03;;;;;;;15.13;4.18;;;;;;;;;;5026045;28;20427;-59
2023/05/24 12:33:31;;;;;;;14.98;4.30;;;;;;;;;;5024681;28;20423;-59
2023/05/24 12:36:00;;;;;;;16.67;5.03;;;;;;;;;;5022170;28;20888;-55
2023/05/24 12:38:26;;;;;;;14.53;5.50;;;;;;;;;;5014857;28;20416;-57
2023/05/24 12:40:54;;;;;;;14.40;5.40;;;;;;;;;;5020129;28;20470;-57
2023/05/24 12:43:21;;;;;;;13.88;5.18;;;;;;;;;;5021556;28;20909;-56
2023/05/24 12:45:49;;;;;;;14.77;5.93;;;;;;;;;;5017514;28;20424;-57
2023/05/24 12:48:16;;;;;;;16.02;6.00;;;;;;;;;;5023325;28;20484;-56
2023/05/24 12:50:43;;;;;;;15.65;5.78;;;;;;;;;;5020019;28;20428;-54
2023/05/24 12:53:11;;;;;;;14.07;6.15;;;;;;;;;;5020098;28;20416;-56
2023/05/24 12:55:38;;;;;;;17.10;6.53;;;;;;;;;;5007388;28;20746;-57
2023/05/24 12:58:08;;;;;;;13.27;5.60;;;;;;;;;;5017081;28;20422;-57
2023/05/24 13:00:35;;;;;;;14.65;5.00;;;;;;;;;;5023051;28;20905;-58
2023/05/24 13:03:02;;;;;;;13.43;5.15;;;;;;;;;;5023603;28;20410;-57
2023/05/24 13:05:29;;;;;;;14.88;4.80;;;;;;;;;;5019646;28;20427;-59
2023/05/24 13:07:57;;;;;;;14.23;5.22;;;;;;;;;;5018318;28;20468;-55
2023/05/24 13:10:26;;;;;;;12.77;4.28;;;;;;;;;;5017206;28;20882;-54
2023/05/24 13:12:53;;;;;;;13.48;4.20;;;;;;;;;;5013162;28;20461;-55
2023/05/24 13:15:22;;;;;;;9.05;4.25;;;;;;;;;;5018479;28;20424;-57
2023/05/24 13:17:49;;;;;;;13.13;4.72;;;;;;;;;;5021445;28;20463;-56
2023/05/24 13:20:17;;;;;;;12.68;5.20;;;;;;;;;;5021404;28;20415;-61
2023/05/24 13:22:45;;;;;;;14.55;5.50;;;;;;;;;;5021395;28;20460;-57
2023/05/24 13:25:12;;;;;;;15.90;4.45;;;;;;;;;;5017287;28;20435;-58
2023/05/24 13:27:40;;;;;;;12.52;4.47;;;;;;;;;;5018116;28;20483;-58
2023/05/24 13:30:08;;;;;;;12.20;4.13;;;;;;;;;;5020894;28;20452;-59
2023/05/24 13:32:35;;;;;;;16.52;5.30;;;;;;;;;;5025310;28;20973;-59
2023/05/24 13:35:02;;;;;;;14.55;4.90;;;;;;;;;;5018123;28;20488;-62
2023/05/24 13:37:30;;;;;;;14.40;4.80;;;;;;;;;;5018549;28;20513;-58
2023/05/24 13:39:57;;;;;;;13.00;4.63;;;;;;;;;;5020943;28;20466;-57
2023/05/24 13:42:24;;;;;;;16.33;5.10;;;;;;;;;;5016919;28;20420;-56
2023/05/24 13:44:53;;;;;;;16.27;5.13;;;;;;;;;;5019614;28;20416;-59
2023/05/24 13:47:20;;;;;;;15.30;5.00;;;;;;;;;;5012025;28;20456;-57
2023/05/24 13:49:48;;;;;;;11.57;4.32;;;;;;;;;;5017942;28;20413;-59
2023/05/24 13:52:15;;;;;;;14.82;5.00;;;;;;;;;;5024957;28;20494;-59
2023/05/24 13:54:42;;;;;;;15.70;5.00;;;;;;;;;;5018340;28;20486;-58
2023/05/24 13:57:10;;;;;;;16.48;4.95;;;;;;;;;;5018667;28;20424;-57